createdAt,value
2019-04-26T00:05:15.097Z,37.00
2019-04-26T00:10:41.095Z,37.10
2019-04-26T00:16:19.060Z,37.30
2019-04-26T00:21:35.149Z,37.40
2019-04-26T00:26:51.607Z,37.50
2019-04-26T00:32:07.385Z,37.50
2019-04-26T00:37:23.099Z,37.70
2019-04-26T00:42:39.178Z,37.70
2019-04-26T00:47:55.670Z,37.80
2019-04-26T00:53:13.326Z,37.90
2019-04-26T00:58:33.439Z,37.90
2019-04-26T01:03:47.891Z,37.60
2019-04-26T01:09:04.087Z,38.10
2019-04-26T01:14:22.122Z,38.20
2019-04-26T01:19:40.612Z,38.30
2019-04-26T01:24:58.942Z,38.30
2019-04-26T01:30:14.638Z,38.50
2019-04-26T01:35:30.971Z,38.30
2019-04-26T01:40:49.781Z,38.40
2019-04-26T01:46:12.723Z,38.50
2019-04-26T01:51:51.322Z,38.60
2019-04-26T01:57:07.525Z,38.70
2019-04-26T02:02:39.883Z,38.70
2019-04-26T02:07:57.246Z,38.70
2019-04-26T02:13:12.986Z,39.00
2019-04-26T02:18:29.399Z,38.90
2019-04-26T02:24:04.510Z,39.10
2019-04-26T02:29:27.022Z,39.10
2019-04-26T02:34:43.006Z,39.30
2019-04-26T02:39:59.390Z,39.40
2019-04-26T02:46:01.722Z,39.50
2019-04-26T02:51:25.053Z,39.50
2019-04-26T02:56:45.118Z,39.60
2019-04-26T03:02:05.031Z,39.70
2019-04-26T03:07:46.666Z,39.80
2019-04-26T03:13:06.087Z,39.90
2019-04-26T03:18:51.016Z,40.10
2019-04-26T03:24:42.558Z,40.20
2019-04-26T03:30:33.301Z,40.20
2019-04-26T03:36:17.805Z,40.50
2019-04-26T03:42:31.303Z,40.60
2019-04-26T03:48:07.511Z,40.70
2019-04-26T03:53:49.297Z,40.80
2019-04-26T03:59:27.312Z,40.80
2019-04-26T04:04:55.941Z,41.00
2019-04-26T04:10:19.364Z,41.20
2019-04-26T04:15:46.722Z,41.30
2019-04-26T04:21:30.247Z,41.40
2019-04-26T04:27:26.712Z,41.60
2019-04-26T04:33:05.611Z,41.70
2019-04-26T04:39:11.185Z,41.90
2019-04-26T04:44:42.373Z,42.00
2019-04-26T04:50:45.496Z,42.10
2019-04-26T04:56:55.311Z,42.30
2019-04-26T05:03:02.243Z,42.40
2019-04-26T05:08:36.484Z,42.60
2019-04-26T05:14:10.639Z,42.70
2019-04-26T05:20:15.494Z,42.80
2019-04-26T05:26:45.999Z,43.00
2019-04-26T05:33:09.957Z,43.20
2019-04-26T05:39:20.117Z,43.30
2019-04-26T05:45:46.730Z,43.60
2019-04-26T05:52:05.487Z,43.80
2019-04-26T05:58:10.177Z,44.00
2019-04-26T06:04:39.581Z,44.20
2019-04-26T06:10:32.033Z,44.40
2019-04-26T06:16:02.373Z,44.80
2019-04-26T06:22:11.275Z,44.80
2019-04-26T06:28:16.380Z,45.10
2019-04-26T06:34:05.380Z,45.20
2019-04-26T06:40:15.478Z,45.40
2019-04-26T06:46:14.803Z,45.70
2019-04-26T06:51:39.802Z,45.70
2019-04-26T06:57:59.353Z,46.00
2019-04-26T07:04:12.765Z,46.00
2019-04-26T07:09:35.250Z,46.10
2019-04-26T07:15:31.067Z,46.20
2019-04-26T07:21:30.471Z,46.30
2019-04-26T07:27:41.231Z,46.40
2019-04-26T07:33:53.310Z,46.50
2019-04-26T07:39:54.894Z,46.60
2019-04-26T07:46:04.417Z,46.80
2019-04-26T07:52:49.900Z,46.90
2019-04-26T07:59:08.677Z,46.90
2019-04-26T08:04:36.204Z,47.10
2019-04-26T08:10:17.272Z,47.00
2019-04-26T08:16:14.630Z,47.10
2019-04-26T08:21:37.334Z,47.70
2019-04-26T08:27:23.775Z,47.70
2019-04-26T08:32:51.295Z,50.60
2019-04-26T08:38:16.075Z,51.90
2019-04-26T08:43:55.872Z,53.70
2019-04-26T08:49:26.041Z,54.20
2019-04-26T08:54:51.978Z,55.30
2019-04-26T09:00:23.336Z,55.60
2019-04-26T09:05:59.299Z,56.50
2019-04-26T09:11:25.927Z,56.90
2019-04-26T09:16:35.952Z,58.20
2019-04-26T09:22:12.936Z,60.10
2019-04-26T09:27:46.011Z,60.80
2019-04-26T09:33:08.874Z,61.40
2019-04-26T09:38:24.700Z,61.30
2019-04-26T09:43:48.570Z,61.80
2019-04-26T09:49:41.166Z,62.50
2019-04-26T09:54:55.897Z,64.00
2019-04-26T10:00:16.392Z,64.20
2019-04-26T10:05:36.352Z,64.90
2019-04-26T10:10:53.208Z,64.30
2019-04-26T10:16:37.782Z,65.00
2019-04-26T10:21:54.525Z,64.60
2019-04-26T10:27:10.787Z,65.00
2019-04-26T10:32:27.854Z,65.00
2019-04-26T10:37:47.951Z,65.10
2019-04-26T10:43:01.797Z,65.40
2019-04-26T10:48:17.620Z,65.50
2019-04-26T10:53:53.007Z,65.70
2019-04-26T10:59:28.502Z,66.00
2019-04-26T11:04:46.751Z,65.90
2019-04-26T11:10:03.050Z,66.00
2019-04-26T11:15:20.126Z,66.40
2019-04-26T11:20:36.853Z,66.00
2019-04-26T11:25:52.820Z,65.40
2019-04-26T11:31:08.892Z,66.40
2019-04-26T11:36:24.763Z,66.80
2019-04-26T11:41:41.710Z,66.80
2019-04-26T11:46:59.401Z,67.20
2019-04-26T11:52:16.318Z,67.70
2019-04-26T11:57:32.728Z,67.80
2019-04-26T12:02:50.779Z,68.30
2019-04-26T12:08:09.633Z,68.80
2019-04-26T12:13:26.700Z,69.10
2019-04-26T12:18:44.220Z,69.60
2019-04-26T12:24:01.218Z,69.70
2019-04-26T12:29:17.742Z,70.50
2019-04-26T12:34:33.584Z,71.40
2019-04-26T12:39:50.253Z,72.00
2019-04-26T12:45:24.511Z,72.90
2019-04-26T12:50:41.092Z,73.30
2019-04-26T12:55:58.456Z,73.70
2019-04-26T13:01:15.024Z,75.00
2019-04-26T13:06:32.006Z,75.70
2019-04-26T13:13:11.118Z,75.50
2019-04-26T13:18:31.076Z,76.20
2019-04-26T13:23:50.010Z,77.10
2019-04-26T13:29:12.873Z,78.00
2019-04-26T13:34:33.287Z,78.20
2019-04-26T13:39:55.279Z,78.90
2019-04-26T13:45:36.542Z,80.10
2019-04-26T13:51:01.420Z,80.70
2019-04-26T13:56:15.224Z,80.90
2019-04-26T14:01:32.368Z,81.20
2019-04-26T14:06:48.369Z,82.20
2019-04-26T14:12:17.814Z,82.80
2019-04-26T14:17:26.080Z,83.40
2019-04-26T14:22:51.347Z,84.20
2019-04-26T14:28:08.132Z,84.10
2019-04-26T14:33:27.068Z,84.80
2019-04-26T14:38:47.202Z,85.40
2019-04-26T14:44:14.649Z,87.10
2019-04-26T14:49:23.477Z,88.10
2019-04-26T14:54:41.328Z,89.80
2019-04-26T14:59:58.332Z,90.30
2019-04-26T15:05:33.320Z,90.80
2019-04-26T15:10:57.676Z,90.50
2019-04-26T15:16:10.511Z,90.40
2019-04-26T15:21:27.432Z,90.70
2019-04-26T15:26:45.382Z,90.40
2019-04-26T15:32:04.792Z,90.80
2019-04-26T15:37:25.091Z,91.20
2019-04-26T15:43:02.547Z,91.30
2019-04-26T15:48:36.501Z,91.90
2019-04-26T15:53:53.078Z,92.00
2019-04-26T15:59:08.762Z,92.10
2019-04-26T16:04:25.855Z,92.10
2019-04-26T16:09:44.234Z,92.00
2019-04-26T16:15:06.563Z,92.00
2019-04-26T16:20:23.125Z,91.90
2019-04-26T16:25:40.266Z,91.80
2019-04-26T16:31:15.225Z,91.60
2019-04-26T16:36:36.651Z,91.50
2019-04-26T16:41:49.592Z,91.60
2019-04-26T16:47:05.957Z,91.60
2019-04-26T16:52:23.757Z,91.60
2019-04-26T16:57:43.875Z,91.70
2019-04-26T17:03:02.556Z,91.70
2019-04-26T17:08:19.173Z,91.50
2019-04-26T17:13:34.725Z,91.50
2019-04-26T17:18:50.028Z,91.30
2019-04-26T17:24:46.245Z,91.70
2019-04-26T17:30:03.097Z,91.40
2019-04-26T17:35:20.504Z,91.30
2019-04-26T17:40:38.029Z,91.30
2019-04-26T17:45:53.856Z,91.30
2019-04-26T17:51:18.583Z,91.20
2019-04-26T18:02:00.816Z,91.20
2019-04-26T18:07:34.629Z,91.30
2019-04-26T18:12:32.607Z,91.10
2019-04-26T18:18:18.778Z,91.10
2019-04-26T18:23:34.558Z,91.30
2019-04-26T18:28:53.367Z,91.30
2019-04-26T18:34:07.882Z,91.40
2019-04-26T18:39:26.443Z,91.50
2019-04-26T18:44:47.347Z,91.80
2019-04-26T18:50:00.566Z,91.80
2019-04-26T18:55:29.170Z,92.10
2019-04-26T19:01:24.293Z,92.10
2019-04-26T19:06:42.176Z,92.20
2019-04-26T19:11:59.253Z,92.40
2019-04-26T19:17:25.966Z,92.50
2019-04-26T19:22:46.595Z,92.50
2019-04-26T19:28:04.281Z,92.50
2019-04-26T19:40:32.874Z,92.70
2019-04-26T19:46:28.648Z,92.80
2019-04-26T19:52:15.106Z,92.90
2019-04-26T19:58:16.146Z,93.20
2019-04-26T20:03:27.898Z,93.00
2019-04-26T20:09:26.575Z,93.00
2019-04-26T20:15:02.175Z,92.90
2019-04-26T20:21:12.587Z,93.10
2019-04-26T20:26:44.660Z,93.00
2019-04-26T20:32:28.756Z,93.00
2019-04-26T20:37:49.401Z,93.00
2019-04-26T20:43:24.510Z,93.10
2019-04-26T20:54:24.940Z,93.10
2019-04-26T21:01:02.506Z,93.20
2019-04-26T21:06:11.448Z,93.30
2019-04-26T21:11:51.689Z,93.20
2019-04-26T21:17:19.313Z,93.30
2019-04-26T21:23:19.755Z,93.30
2019-04-26T21:29:06.766Z,93.30
2019-04-26T21:34:38.744Z,93.50
2019-04-26T21:41:14.020Z,93.50
2019-04-26T21:47:03.245Z,93.50
2019-04-26T21:52:21.432Z,93.60
2019-04-26T21:58:02.685Z,93.50
2019-04-26T22:10:14.240Z,93.70
2019-04-26T22:16:29.342Z,93.80
2019-04-26T22:21:54.425Z,93.70
2019-04-26T22:27:25.353Z,93.80
2019-04-26T22:32:58.436Z,93.60
2019-04-26T22:38:28.978Z,93.70
2019-04-26T22:44:08.281Z,93.80
2019-04-26T22:49:45.123Z,93.90
2019-04-26T22:55:15.882Z,94.00
2019-04-26T23:00:58.478Z,93.90
2019-04-26T23:06:15.355Z,93.90
2019-04-26T23:12:05.552Z,94.00
2019-04-26T23:17:53.846Z,94.10
2019-04-26T23:23:26.859Z,94.20
2019-04-26T23:28:50.435Z,94.10
2019-04-26T23:34:26.670Z,94.20
2019-04-26T23:40:06.534Z,94.30
2019-04-26T23:45:35.481Z,94.30
2019-04-26T23:51:05.019Z,94.30
2019-04-26T23:56:37.379Z,94.50
